sensor_id;sensor_type;location;lat;lon;timestamp;pressure;altitude;pressure_sealevel;temperature;humidity
36092;BME280;22147;52.388;13.390;2023-02-23T00:02:00;100809.34;;;3.06;100.00
36092;BME280;22147;52.388;13.390;2023-02-23T00:04:36;100800.56;;;3.15;100.00
36092;BME280;22147;52.388;13.390;2023-02-23T00:07:06;100801.13;;;3.22;100.00
36092;BME280;22147;52.388;13.390;2023-02-23T00:09:37;100801.66;;;3.09;100.00
36092;BME280;22147;52.388;13.390;2023-02-23T00:12:09;100807.97;;;3.14;100.00
36092;BME280;22147;52.388;13.390;2023-02-23T00:14:42;100810.75;;;2.99;100.00
36092;BME280;22147;52.388;13.390;2023-02-23T00:17:12;100795.63;;;3.17;100.00
36092;BME280;22147;52.388;13.390;2023-02-23T00:19:46;100796.47;;;3.07;100.00
36092;BME280;22147;52.388;13.390;2023-02-23T00:22:18;100792.06;;;3.16;100.00
36092;BME280;22147;52.388;13.390;2023-02-23T00:24:48;100791.25;;;3.16;100.00
36092;BME280;22147;52.388;13.390;2023-02-23T00:27:18;100786.03;;;3.14;100.00
36092;BME280;22147;52.388;13.390;2023-02-23T00:29:50;100776.41;;;3.22;100.00
36092;BME280;22147;52.388;13.390;2023-02-23T00:32:20;100782.72;;;3.33;100.00
36092;BME280;22147;52.388;13.390;2023-02-23T00:34:50;100788.75;;;3.35;100.00
36092;BME280;22147;52.388;13.390;2023-02-23T00:37:21;100787.38;;;3.27;100.00
36092;BME280;22147;52.388;13.390;2023-02-23T00:39:55;100781.09;;;3.16;100.00
36092;BME280;22147;52.388;13.390;2023-02-23T00:42:25;100779.72;;;3.09;100.00
36092;BME280;22147;52.388;13.390;2023-02-23T00:45:00;100781.38;;;2.99;100.00
36092;BME280;22147;52.388;13.390;2023-02-23T00:47:35;100779.19;;;3.01;100.00
36092;BME280;22147;52.388;13.390;2023-02-23T00:50:04;100781.66;;;3.08;100.00
36092;BME280;22147;52.388;13.390;2023-02-23T00:52:32;100775.88;;;3.10;100.00
36092;BME280;22147;52.388;13.390;2023-02-23T00:55:00;100769.03;;;3.07;100.00
36092;BME280;22147;52.388;13.390;2023-02-23T00:57:28;100774.22;;;3.19;100.00
36092;BME280;22147;52.388;13.390;2023-02-23T00:59:57;100778.91;;;3.03;100.00
36092;BME280;22147;52.388;13.390;2023-02-23T01:02:27;100776.38;;;3.32;100.00
36092;BME280;22147;52.388;13.390;2023-02-23T01:05:00;100779.13;;;3.37;100.00
36092;BME280;22147;52.388;13.390;2023-02-23T01:07:30;100774.78;;;3.11;100.00
36092;BME280;22147;52.388;13.390;2023-02-23T01:10:00;100767.94;;;3.03;100.00
36092;BME280;22147;52.388;13.390;2023-02-23T01:12:30;100773.69;;;3.06;100.00
36092;BME280;22147;52.388;13.390;2023-02-23T01:15:00;100771.19;;;3.20;100.00
36092;BME280;22147;52.388;13.390;2023-02-23T01:17:32;100779.47;;;3.05;100.00
36092;BME280;22147;52.388;13.390;2023-02-23T01:20:02;100781.38;;;2.99;100.00
36092;BME280;22147;52.388;13.390;2023-02-23T01:22:47;100786.59;;;3.06;100.00
36092;BME280;22147;52.388;13.390;2023-02-23T01:25:18;100780.53;;;3.14;100.00
36092;BME280;22147;52.388;13.390;2023-02-23T01:27:49;100772.59;;;3.08;100.00
36092;BME280;22147;52.388;13.390;2023-02-23T01:30:19;100772.59;;;3.02;100.00
36092;BME280;22147;52.388;13.390;2023-02-23T01:32:50;100763.25;;;2.98;100.00
36092;BME280;22147;52.388;13.390;2023-02-23T01:35:21;100767.94;;;2.82;100.00
36092;BME280;22147;52.388;13.390;2023-02-23T01:37:52;100758.91;;;2.82;100.00
36092;BME280;22147;52.388;13.390;2023-02-23T01:40:25;100757.53;;;2.95;100.00
36092;BME280;22147;52.388;13.390;2023-02-23T01:43:14;100759.44;;;2.94;100.00
36092;BME280;22147;52.388;13.390;2023-02-23T01:45:49;100751.22;;;2.79;100.00
36092;BME280;22147;52.388;13.390;2023-02-23T01:48:25;100748.72;;;3.08;100.00
36092;BME280;22147;52.388;13.390;2023-02-23T01:51:12;100754.75;;;3.00;100.00
36092;BME280;22147;52.388;13.390;2023-02-23T01:54:03;100742.44;;;2.77;100.00
36092;BME280;22147;52.388;13.390;2023-02-23T01:56:45;100743.00;;;2.84;100.00
36092;BME280;22147;52.388;13.390;2023-02-23T01:59:42;100745.72;;;2.79;100.00
36092;BME280;22147;52.388;13.390;2023-02-23T02:02:15;100738.59;;;2.78;100.00
36092;BME280;22147;52.388;13.390;2023-02-23T02:04:47;100732.03;;;2.84;100.00
36092;BME280;22147;52.388;13.390;2023-02-23T02:07:25;100742.72;;;2.65;100.00
36092;BME280;22147;52.388;13.390;2023-02-23T02:09:58;100738.31;;;2.64;100.00
36092;BME280;22147;52.388;13.390;2023-02-23T02:12:54;100740.53;;;2.67;100.00
36092;BME280;22147;52.388;13.390;2023-02-23T02:15:32;100738.88;;;2.66;100.00
36092;BME280;22147;52.388;13.390;2023-02-23T02:18:27;100724.34;;;2.65;100.00
36092;BME280;22147;52.388;13.390;2023-02-23T02:38:02;100725.97;;;2.67;100.00
36092;BME280;22147;52.388;13.390;2023-02-23T02:40:54;100721.88;;;2.69;100.00
36092;BME280;22147;52.388;13.390;2023-02-23T02:46:25;100707.63;;;2.72;100.00
36092;BME280;22147;52.388;13.390;2023-02-23T02:49:13;100708.47;;;2.62;100.00
36092;BME280;22147;52.388;13.390;2023-02-23T02:52:18;100704.59;;;2.63;100.00
36092;BME280;22147;52.388;13.390;2023-02-23T02:55:20;100703.53;;;2.54;100.00
36092;BME280;22147;52.388;13.390;2023-02-23T02:57:57;100699.66;;;2.65;100.00
36092;BME280;22147;52.388;13.390;2023-02-23T03:00:46;100702.94;;;2.73;100.00
36092;BME280;22147;52.388;13.390;2023-02-23T03:03:42;100695.56;;;2.58;100.00
36092;BME280;22147;52.388;13.390;2023-02-23T03:06:57;100692.53;;;2.59;100.00
36092;BME280;22147;52.388;13.390;2023-02-23T03:10:05;100698.84;;;2.50;100.00
36092;BME280;22147;52.388;13.390;2023-02-23T03:13:35;100694.47;;;2.49;100.00
36092;BME280;22147;52.388;13.390;2023-02-23T03:23:45;100698.84;;;2.55;100.00
36092;BME280;22147;52.388;13.390;2023-02-23T03:26:57;100695.28;;;2.39;100.00
36092;BME280;22147;52.388;13.390;2023-02-23T03:30:39;100696.66;;;2.36;100.00
36092;BME280;22147;52.388;13.390;2023-02-23T03:37:31;100691.44;;;2.14;100.00
36092;BME280;22147;52.388;13.390;2023-02-23T03:40:36;100691.72;;;2.08;100.00
36092;BME280;22147;52.388;13.390;2023-02-23T03:43:38;100681.31;;;2.25;100.00
36092;BME280;22147;52.388;13.390;2023-02-23T03:46:36;100686.50;;;2.11;100.00
36092;BME280;22147;52.388;13.390;2023-02-23T03:49:33;100679.91;;;2.07;100.00
36092;BME280;22147;52.388;13.390;2023-02-23T03:52:44;100675.28;;;2.28;100.00
36092;BME280;22147;52.388;13.390;2023-02-23T03:55:44;100672.81;;;2.11;100.00
36092;BME280;22147;52.388;13.390;2023-02-23T03:58:49;100666.78;;;2.04;100.00
36092;BME280;22147;52.388;13.390;2023-02-23T04:01:44;100672.25;;;1.94;100.00
36092;BME280;22147;52.388;13.390;2023-02-23T04:04:35;100672.50;;;1.92;100.00
36092;BME280;22147;52.388;13.390;2023-02-23T04:07:27;100663.44;;;1.81;100.00
36092;BME280;22147;52.388;13.390;2023-02-23T04:10:17;100669.19;;;1.75;100.00
36092;BME280;22147;52.388;13.390;2023-02-23T04:13:26;100665.09;;;1.77;100.00
36092;BME280;22147;52.388;13.390;2023-02-23T04:16:10;100662.91;;;1.74;100.00
36092;BME280;22147;52.388;13.390;2023-02-23T04:18:40;100664.78;;;1.63;100.00
36092;BME280;22147;52.388;13.390;2023-02-23T04:21:11;100662.63;;;1.66;100.00
36092;BME280;22147;52.388;13.390;2023-02-23T04:23:42;100673.31;;;1.77;100.00
36092;BME280;22147;52.388;13.390;2023-02-23T04:26:12;100668.94;;;1.87;100.00
36092;BME280;22147;52.388;13.390;2023-02-23T04:28:42;100654.13;;;1.77;100.00
36092;BME280;22147;52.388;13.390;2023-02-23T04:31:12;100665.34;;;1.66;100.00
36092;BME280;22147;52.388;13.390;2023-02-23T04:33:42;100665.06;;;1.67;100.00
36092;BME280;22147;52.388;13.390;2023-02-23T04:36:12;100664.75;;;1.53;100.00
36092;BME280;22147;52.388;13.390;2023-02-23T04:38:42;100666.13;;;1.51;100.00
36092;BME280;22147;52.388;13.390;2023-02-23T04:41:13;100665.34;;;1.66;100.00
36092;BME280;22147;52.388;13.390;2023-02-23T04:43:41;100660.16;;;1.79;100.00
36092;BME280;22147;52.388;13.390;2023-02-23T04:46:09;100654.09;;;1.62;100.00
36092;BME280;22147;52.388;13.390;2023-02-23T04:48:38;100646.72;;;1.57;100.00
36092;BME280;22147;52.388;13.390;2023-02-23T04:51:06;100650.47;;;1.41;100.00
36092;BME280;22147;52.388;13.390;2023-02-23T04:53:35;100654.84;;;1.32;100.00
36092;BME280;22147;52.388;13.390;2023-02-23T04:56:06;100647.44;;;1.32;100.00
36092;BME280;22147;52.388;13.390;2023-02-23T04:58:34;100646.94;;;1.46;100.00
36092;BME280;22147;52.388;13.390;2023-02-23T05:01:08;100646.06;;;1.30;100.00
36092;BME280;22147;52.388;13.390;2023-02-23T05:03:41;100645.22;;;1.19;100.00
36092;BME280;22147;52.388;13.390;2023-02-23T05:06:11;100649.56;;;1.15;100.00
36092;BME280;22147;52.388;13.390;2023-02-23T05:08:41;100646.53;;;1.11;100.00
36092;BME280;22147;52.388;13.390;2023-02-23T05:11:12;100650.63;;;1.09;100.00
36092;BME280;22147;52.388;13.390;2023-02-23T05:13:42;100648.16;;;1.07;100.00
36092;BME280;22147;52.388;13.390;2023-02-23T05:16:12;100648.41;;;1.00;100.00
36092;BME280;22147;52.388;13.390;2023-02-23T05:18:42;100651.72;;;1.08;100.00
36092;BME280;22147;52.388;13.390;2023-02-23T05:21:13;100647.88;;;1.04;100.00
36092;BME280;22147;52.388;13.390;2023-02-23T05:23:43;100650.28;;;0.95;100.00
36092;BME280;22147;52.388;13.390;2023-02-23T05:26:14;100648.91;;;0.92;100.00
36092;BME280;22147;52.388;13.390;2023-02-23T05:28:44;100650.28;;;0.90;100.00
36092;BME280;22147;52.388;13.390;2023-02-23T05:31:15;100648.91;;;0.87;100.00
36092;BME280;22147;52.388;13.390;2023-02-23T05:33:46;100648.84;;;0.82;100.00
36092;BME280;22147;52.388;13.390;2023-02-23T05:36:18;100655.13;;;0.77;100.00
36092;BME280;22147;52.388;13.390;2023-02-23T05:38:50;100660.84;;;0.76;100.00
36092;BME280;22147;52.388;13.390;2023-02-23T05:41:22;100659.47;;;0.73;100.00
36092;BME280;22147;52.388;13.390;2023-02-23T05:43:54;100659.69;;;0.67;100.00
36092;BME280;22147;52.388;13.390;2023-02-23T05:46:26;100661.88;;;0.65;100.00
36092;BME280;22147;52.388;13.390;2023-02-23T05:48:59;100659.44;;;0.68;100.00
36092;BME280;22147;52.388;13.390;2023-02-23T05:51:33;100657.22;;;0.65;100.00
36092;BME280;22147;52.388;13.390;2023-02-23T05:54:04;100665.16;;;0.62;100.00
36092;BME280;22147;52.388;13.390;2023-02-23T05:56:32;100665.09;;;0.56;100.00
36092;BME280;22147;52.388;13.390;2023-02-23T05:59:00;100659.59;;;0.51;100.00
36092;BME280;22147;52.388;13.390;2023-02-23T06:01:33;100667.50;;;0.48;100.00
36092;BME280;22147;52.388;13.390;2023-02-23T06:04:04;100667.97;;;0.39;100.00
36092;BME280;22147;52.388;13.390;2023-02-23T06:06:35;100672.56;;;0.34;100.00
36092;BME280;22147;52.388;13.390;2023-02-23T06:09:05;100677.22;;;0.33;100.00
36092;BME280;22147;52.388;13.390;2023-02-23T06:11:35;100677.56;;;0.42;100.00
36092;BME280;22147;52.388;13.390;2023-02-23T06:14:05;100677.38;;;0.49;100.00
36092;BME280;22147;52.388;13.390;2023-02-23T06:16:35;100671.06;;;0.48;100.00
36092;BME280;22147;52.388;13.390;2023-02-23T06:19:06;100681.97;;;0.48;100.00
36092;BME280;22147;52.388;13.390;2023-02-23T06:21:36;100683.66;;;0.49;100.00
36092;BME280;22147;52.388;13.390;2023-02-23T06:24:06;100684.88;;;0.69;100.00
36092;BME280;22147;52.388;13.390;2023-02-23T06:26:37;100682.66;;;0.66;100.00
36092;BME280;22147;52.388;13.390;2023-02-23T06:29:07;100682.66;;;0.66;100.00
36092;BME280;22147;52.388;13.390;2023-02-23T06:31:37;100686.78;;;0.68;100.00
36092;BME280;22147;52.388;13.390;2023-02-23T06:34:08;100686.00;;;0.78;100.00
36092;BME280;22147;52.388;13.390;2023-02-23T06:36:38;100685.75;;;0.79;100.00
36092;BME280;22147;52.388;13.390;2023-02-23T06:39:11;100686.13;;;0.98;100.00
36092;BME280;22147;52.388;13.390;2023-02-23T06:41:40;100689.50;;;1.16;100.00
36092;BME280;22147;52.388;13.390;2023-02-23T06:44:10;100688.94;;;1.14;100.00
36092;BME280;22147;52.388;13.390;2023-02-23T06:46:40;100690.06;;;1.18;100.00
36092;BME280;22147;52.388;13.390;2023-02-23T06:49:11;100690.09;;;1.23;100.00
36092;BME280;22147;52.388;13.390;2023-02-23T06:51:43;100693.72;;;1.34;100.00
36092;BME280;22147;52.388;13.390;2023-02-23T06:54:11;100698.34;;;1.33;100.00
36092;BME280;22147;52.388;13.390;2023-02-23T06:56:41;100686.38;;;1.45;100.00
36092;BME280;22147;52.388;13.390;2023-02-23T06:59:11;100687.47;;;1.54;100.00
36092;BME280;22147;52.388;13.390;2023-02-23T07:01:41;100683.38;;;1.51;100.00
36092;BME280;22147;52.388;13.390;2023-02-23T07:04:12;100688.84;;;1.51;100.00
36092;BME280;22147;52.388;13.390;2023-02-23T07:06:42;100689.69;;;1.62;100.00
36092;BME280;22147;52.388;13.390;2023-02-23T07:09:13;100695.47;;;1.71;100.00
36092;BME280;22147;52.388;13.390;2023-02-23T07:11:43;100690.50;;;1.62;100.00
36092;BME280;22147;52.388;13.390;2023-02-23T07:14:13;100701.25;;;1.74;100.00
36092;BME280;22147;52.388;13.390;2023-02-23T07:16:54;100697.94;;;1.72;100.00
36092;BME280;22147;52.388;13.390;2023-02-23T07:19:25;100700.38;;;1.69;100.00
36092;BME280;22147;52.388;13.390;2023-02-23T07:21:53;100693.53;;;1.71;100.00
36092;BME280;22147;52.388;13.390;2023-02-23T07:24:22;100693.31;;;1.78;100.00
36092;BME280;22147;52.388;13.390;2023-02-23T07:26:50;100695.75;;;1.79;100.00
36092;BME280;22147;52.388;13.390;2023-02-23T07:29:19;100695.50;;;1.81;100.00
36092;BME280;22147;52.388;13.390;2023-02-23T07:31:47;100696.34;;;1.87;100.00
36092;BME280;22147;52.388;13.390;2023-02-23T07:34:16;100695.00;;;2.04;100.00
36092;BME280;22147;52.388;13.390;2023-02-23T07:36:44;100692.53;;;1.98;100.00
36092;BME280;22147;52.388;13.390;2023-02-23T07:39:13;100695.25;;;2.03;100.00
36092;BME280;22147;52.388;13.390;2023-02-23T07:41:41;100688.41;;;2.16;100.00
36092;BME280;22147;52.388;13.390;2023-02-23T07:44:09;100697.47;;;2.16;100.00
36092;BME280;22147;52.388;13.390;2023-02-23T07:46:38;100696.09;;;2.19;100.00
36092;BME280;22147;52.388;13.390;2023-02-23T07:49:06;100691.47;;;2.40;100.00
36092;BME280;22147;52.388;13.390;2023-02-23T07:51:35;100685.41;;;2.43;100.00
36092;BME280;22147;52.388;13.390;2023-02-23T07:54:04;100691.19;;;2.41;100.00
36092;BME280;22147;52.388;13.390;2023-02-23T07:56:35;100685.69;;;2.47;100.00
36092;BME280;22147;52.388;13.390;2023-02-23T07:59:05;100683.78;;;2.52;100.00
36092;BME280;22147;52.388;13.390;2023-02-23T08:01:35;100688.16;;;2.53;100.00
36092;BME280;22147;52.388;13.390;2023-02-23T08:04:05;100687.34;;;2.53;100.00
36092;BME280;22147;52.388;13.390;2023-02-23T08:06:35;100687.06;;;2.49;100.00
36092;BME280;22147;52.388;13.390;2023-02-23T08:09:06;100677.19;;;2.58;100.00
36092;BME280;22147;52.388;13.390;2023-02-23T08:11:36;100679.09;;;2.73;100.00
36092;BME280;22147;52.388;13.390;2023-02-23T08:14:06;100685.31;;;3.10;100.00
36092;BME280;22147;52.388;13.390;2023-02-23T08:16:36;100680.34;;;3.22;100.00
36092;BME280;22147;52.388;13.390;2023-02-23T08:19:06;100689.38;;;3.28;100.00
36092;BME280;22147;52.388;13.390;2023-02-23T08:21:36;100688.56;;;3.27;100.00
36092;BME280;22147;52.388;13.390;2023-02-23T08:24:07;100690.44;;;3.37;100.00
36092;BME280;22147;52.388;13.390;2023-02-23T08:26:37;100696.22;;;3.35;100.00
36092;BME280;22147;52.388;13.390;2023-02-23T08:29:08;100693.19;;;3.37;100.00
36092;BME280;22147;52.388;13.390;2023-02-23T08:31:38;100691.28;;;3.32;100.00
36092;BME280;22147;52.388;13.390;2023-02-23T08:34:08;100699.22;;;3.34;100.00
36092;BME280;22147;52.388;13.390;2023-02-23T08:36:38;100692.84;;;3.49;100.00
36092;BME280;22147;52.388;13.390;2023-02-23T08:39:08;100692.22;;;3.67;100.00
36092;BME280;22147;52.388;13.390;2023-02-23T08:41:40;100685.31;;;3.75;100.00
36092;BME280;22147;52.388;13.390;2023-02-23T08:44:10;100690.81;;;3.75;100.00
36092;BME280;22147;52.388;13.390;2023-02-23T08:46:40;100683.94;;;3.77;100.00
36092;BME280;22147;52.388;13.390;2023-02-23T08:49:10;100684.09;;;3.91;100.00
36092;BME280;22147;52.388;13.390;2023-02-23T08:51:40;100682.13;;;4.02;100.00
36092;BME280;22147;52.388;13.390;2023-02-23T08:54:11;100681.88;;;3.98;100.00
36092;BME280;22147;52.388;13.390;2023-02-23T08:56:43;100677.47;;;3.97;100.00
36092;BME280;22147;52.388;13.390;2023-02-23T08:59:14;100679.63;;;4.05;100.00
36092;BME280;22147;52.388;13.390;2023-02-23T09:01:43;100679.56;;;4.11;100.00
36092;BME280;22147;52.388;13.390;2023-02-23T09:04:13;100684.78;;;4.12;100.00
36092;BME280;22147;52.388;13.390;2023-02-23T09:06:45;100686.66;;;4.22;100.00
36092;BME280;22147;52.388;13.390;2023-02-23T09:09:18;100693.75;;;4.28;100.00
36092;BME280;22147;52.388;13.390;2023-02-23T09:11:46;100688.50;;;4.32;100.00
36092;BME280;22147;52.388;13.390;2023-02-23T09:14:16;100690.63;;;4.40;100.00
36092;BME280;22147;52.388;13.390;2023-02-23T09:16:46;100693.84;;;4.52;100.00
36092;BME280;22147;52.388;13.390;2023-02-23T09:19:16;100694.34;;;4.59;100.00
36092;BME280;22147;52.388;13.390;2023-02-23T09:21:46;100682.50;;;4.59;100.00
36092;BME280;22147;52.388;13.390;2023-02-23T09:24:16;100696.75;;;4.66;100.00
36092;BME280;22147;52.388;13.390;2023-02-23T09:26:45;100689.31;;;4.96;100.00
36092;BME280;22147;52.388;13.390;2023-02-23T09:29:13;100698.78;;;5.33;100.00
36092;BME280;22147;52.388;13.390;2023-02-23T09:31:41;100699.44;;;5.00;100.00
36092;BME280;22147;52.388;13.390;2023-02-23T09:34:10;100703.88;;;4.96;100.00
36092;BME280;22147;52.388;13.390;2023-02-23T09:36:41;100704.19;;;5.19;100.00
36092;BME280;22147;52.388;13.390;2023-02-23T09:39:10;100699.28;;;5.40;100.00
36092;BME280;22147;52.388;13.390;2023-02-23T09:41:52;100699.13;;;5.50;100.00
36092;BME280;22147;52.388;13.390;2023-02-23T09:50:35;100694.88;;;6.39;100.00
36092;BME280;22147;52.388;13.390;2023-02-23T09:53:38;100692.59;;;6.60;100.00
36092;BME280;22147;52.388;13.390;2023-02-23T09:56:36;100703.06;;;6.77;100.00
36092;BME280;22147;52.388;13.390;2023-02-23T09:59:17;100698.91;;;6.93;100.00
36092;BME280;22147;52.388;13.390;2023-02-23T10:07:25;100693.97;;;6.90;100.00
36092;BME280;22147;52.388;13.390;2023-02-23T10:10:14;100689.44;;;7.27;100.00
36092;BME280;22147;52.388;13.390;2023-02-23T10:13:57;100694.72;;;7.51;100.00
36092;BME280;22147;52.388;13.390;2023-02-23T10:20:12;100685.09;;;8.12;100.00
36092;BME280;22147;52.388;13.390;2023-02-23T10:23:00;100683.78;;;8.32;100.00
36092;BME280;22147;52.388;13.390;2023-02-23T10:25:40;100685.75;;;8.54;100.00
36092;BME280;22147;52.388;13.390;2023-02-23T10:28:18;100690.19;;;8.55;100.00
36092;BME280;22147;52.388;13.390;2023-02-23T10:30:54;100683.44;;;8.70;100.00
36092;BME280;22147;52.388;13.390;2023-02-23T10:33:40;100682.88;;;8.91;100.00
36092;BME280;22147;52.388;13.390;2023-02-23T10:36:28;100684.19;;;8.85;100.00
36092;BME280;22147;52.388;13.390;2023-02-23T10:39:07;100680.00;;;8.96;100.00
36092;BME280;22147;52.388;13.390;2023-02-23T10:41:42;100677.59;;;9.12;100.00
36092;BME280;22147;52.388;13.390;2023-02-23T10:44:23;100676.25;;;9.01;100.00
36092;BME280;22147;52.388;13.390;2023-02-23T10:47:10;100666.75;;;8.93;100.00
36092;BME280;22147;52.388;13.390;2023-02-23T10:49:52;100664.59;;;9.12;100.00
36092;BME280;22147;52.388;13.390;2023-02-23T10:52:34;100666.91;;;9.19;100.00
36092;BME280;22147;52.388;13.390;2023-02-23T10:55:28;100671.28;;;9.20;100.00
36092;BME280;22147;52.388;13.390;2023-02-23T10:58:19;100675.84;;;9.16;100.00
36092;BME280;22147;52.388;13.390;2023-02-23T11:00:54;100675.53;;;9.17;100.00
36092;BME280;22147;52.388;13.390;2023-02-23T11:03:46;100671.16;;;9.25;100.00
36092;BME280;22147;52.388;13.390;2023-02-23T11:06:36;100670.22;;;9.38;100.00
36092;BME280;22147;52.388;13.390;2023-02-23T11:09:24;100669.69;;;9.28;100.00
36092;BME280;22147;52.388;13.390;2023-02-23T11:12:36;100666.47;;;9.43;100.00
36092;BME280;22147;52.388;13.390;2023-02-23T11:15:30;100668.78;;;9.58;100.00
36092;BME280;22147;52.388;13.390;2023-02-23T11:18:23;100671.44;;;9.64;100.00
36092;BME280;22147;52.388;13.390;2023-02-23T11:20:56;100673.06;;;9.73;100.00
36092;BME280;22147;52.388;13.390;2023-02-23T11:23:34;100664.72;;;9.56;100.00
36092;BME280;22147;52.388;13.390;2023-02-23T11:26:22;100661.63;;;9.57;100.00
36092;BME280;22147;52.388;13.390;2023-02-23T11:32:14;100665.59;;;9.83;100.00
36092;BME280;22147;52.388;13.390;2023-02-23T11:37:49;100658.88;;;9.84;100.00
36092;BME280;22147;52.388;13.390;2023-02-23T11:40:31;100652.84;;;9.73;100.00
36092;BME280;22147;52.388;13.390;2023-02-23T11:43:14;100650.91;;;9.91;100.00
36092;BME280;22147;52.388;13.390;2023-02-23T11:45:51;100650.56;;;9.84;100.00
36092;BME280;22147;52.388;13.390;2023-02-23T11:51:36;100633.09;;;9.48;100.00
36092;BME280;22147;52.388;13.390;2023-02-23T11:54:33;100625.72;;;9.52;100.00
36092;BME280;22147;52.388;13.390;2023-02-23T11:57:04;100630.47;;;9.52;100.00
36092;BME280;22147;52.388;13.390;2023-02-23T11:59:40;100627.97;;;9.42;100.00
36092;BME280;22147;52.388;13.390;2023-02-23T12:02:25;100625.09;;;9.64;100.00
36092;BME280;22147;52.388;13.390;2023-02-23T12:05:08;100616.97;;;9.76;100.00
36092;BME280;22147;52.388;13.390;2023-02-23T12:08:05;100618.94;;;9.76;100.00
36092;BME280;22147;52.388;13.390;2023-02-23T12:10:53;100614.50;;;9.92;100.00
36092;BME280;22147;52.388;13.390;2023-02-23T12:16:26;100617.63;;;9.82;100.00
36092;BME280;22147;52.388;13.390;2023-02-23T12:22:13;100619.88;;;9.71;100.00
36092;BME280;22147;52.388;13.390;2023-02-23T12:24:58;100613.03;;;9.69;100.00
36092;BME280;22147;52.388;13.390;2023-02-23T12:28:05;100622.03;;;9.83;100.00
36092;BME280;22147;52.388;13.390;2023-02-23T12:31:00;100620.53;;;9.77;100.00
36092;BME280;22147;52.388;13.390;2023-02-23T12:34:00;100615.00;;;10.12;100.00
36092;BME280;22147;52.388;13.390;2023-02-23T12:37:00;100615.97;;;10.25;100.00
36092;BME280;22147;52.388;13.390;2023-02-23T12:39:48;100613.53;;;10.23;100.00
36092;BME280;22147;52.388;13.390;2023-02-23T12:42:25;100617.13;;;10.15;100.00
36092;BME280;22147;52.388;13.390;2023-02-23T12:45:24;100609.44;;;10.03;100.00
36092;BME280;22147;52.388;13.390;2023-02-23T12:48:24;100607.66;;;9.81;100.00
36092;BME280;22147;52.388;13.390;2023-02-23T12:51:19;100597.53;;;10.11;100.00
36092;BME280;22147;52.388;13.390;2023-02-23T12:54:00;100597.03;;;10.09;100.00
36092;BME280;22147;52.388;13.390;2023-02-23T13:10:17;100596.88;;;10.14;100.00
36092;BME280;22147;52.388;13.390;2023-02-23T13:19:12;100590.03;;;10.21;100.00
36092;BME280;22147;52.388;13.390;2023-02-23T13:21:53;100581.69;;;10.03;100.00
36092;BME280;22147;52.388;13.390;2023-02-23T13:24:46;100582.19;;;10.14;100.00
36092;BME280;22147;52.388;13.390;2023-02-23T13:27:33;100585.28;;;10.12;100.00
36092;BME280;22147;52.388;13.390;2023-02-23T13:30:11;100578.09;;;10.03;100.00
36092;BME280;22147;52.388;13.390;2023-02-23T13:32:40;100578.25;;;10.15;100.00
36092;BME280;22147;52.388;13.390;2023-02-23T13:35:19;100579.56;;;10.17;100.00
36092;BME280;22147;52.388;13.390;2023-02-23T13:38:10;100575.50;;;10.15;100.00
36092;BME280;22147;52.388;13.390;2023-02-23T13:41:32;100581.22;;;10.18;100.00
36092;BME280;22147;52.388;13.390;2023-02-23T13:44:23;100578.75;;;10.17;100.00
36092;BME280;22147;52.388;13.390;2023-02-23T13:47:20;100574.22;;;10.04;100.00
36092;BME280;22147;52.388;13.390;2023-02-23T13:50:29;100578.44;;;10.01;100.00
36092;BME280;22147;52.388;13.390;2023-02-23T13:53:35;100579.28;;;10.02;100.00
36092;BME280;22147;52.388;13.390;2023-02-23T13:56:24;100576.50;;;9.93;100.00
36092;BME280;22147;52.388;13.390;2023-02-23T13:59:10;100583.69;;;9.85;100.00
36092;BME280;22147;52.388;13.390;2023-02-23T14:01:52;100576.84;;;9.83;100.00
36092;BME280;22147;52.388;13.390;2023-02-23T14:04:36;100579.94;;;9.72;100.00
36092;BME280;22147;52.388;13.390;2023-02-23T14:07:29;100582.69;;;9.81;100.00
36092;BME280;22147;52.388;13.390;2023-02-23T14:16:34;100583.69;;;9.59;100.00
36092;BME280;22147;52.388;13.390;2023-02-23T14:19:35;100587.75;;;9.53;100.00
36092;BME280;22147;52.388;13.390;2023-02-23T14:22:15;100583.13;;;9.31;100.00
36092;BME280;22147;52.388;13.390;2023-02-23T14:41:39;100586.53;;;9.10;100.00
36092;BME280;22147;52.388;13.390;2023-02-23T14:44:36;100596.63;;;9.06;100.00
36092;BME280;22147;52.388;13.390;2023-02-23T14:47:18;100591.84;;;8.98;100.00
36092;BME280;22147;52.388;13.390;2023-02-23T14:50:00;100591.97;;;8.93;100.00
36092;BME280;22147;52.388;13.390;2023-02-23T14:52:40;100586.38;;;8.75;100.00
36092;BME280;22147;52.388;13.390;2023-02-23T14:55:24;100579.84;;;8.71;100.00
36092;BME280;22147;52.388;13.390;2023-02-23T14:57:58;100586.69;;;8.74;100.00
36092;BME280;22147;52.388;13.390;2023-02-23T15:00:40;100592.00;;;8.53;100.00
36092;BME280;22147;52.388;13.390;2023-02-23T15:03:12;100585.81;;;8.33;100.00
36092;BME280;22147;52.388;13.390;2023-02-23T15:08:27;100585.19;;;8.36;100.00
36092;BME280;22147;52.388;13.390;2023-02-23T15:11:11;100589.31;;;8.25;100.00
36092;BME280;22147;52.388;13.390;2023-02-23T15:13:49;100587.47;;;8.12;100.00
36092;BME280;22147;52.388;13.390;2023-02-23T15:16:36;100585.69;;;7.93;100.00
36092;BME280;22147;52.388;13.390;2023-02-23T15:19:06;100586.59;;;8.03;100.00
36092;BME280;22147;52.388;13.390;2023-02-23T15:21:36;100577.16;;;7.81;100.00
36092;BME280;22147;52.388;13.390;2023-02-23T15:24:13;100588.91;;;7.87;100.00
36092;BME280;22147;52.388;13.390;2023-02-23T15:26:51;100582.50;;;7.78;100.00